FW9002 Weather Reports


Display with metric or nautical units.
time (UTC)temp
F
wind
direction
speed
MPH
gust
MPH
rain 1hr
in
rain 24hr
in
rain mn
in
humidity
%
barometer
mb
20240524091820 65 164 0.0 0.0 0.00 0.00 0.00 29 1010.4
20240524091319 64 163 0.0 0.0 0.00 0.00 0.00 29 1010.5
20240524090817 64 153 0.0 0.0 0.00 0.00 0.00 29 1010.5
20240524090316 64 163 0.0 0.0 0.00 0.00 0.00 29 1010.7
20240524085816 64 157 0.0 0.0 0.00 0.00 0.00 29 1010.6
20240524085314 65 159 0.0 0.0 0.00 0.00 0.00 28 1010.7
20240524084813 65 163 0.0 0.0 0.00 0.00 0.00 27 1010.6
20240524084312 66 163 0.0 0.0 0.00 0.00 0.00 27 1010.6
20240524083812 66 161 0.0 0.0 0.00 0.00 0.00 26 1010.5
20240524083307 66 163 0.0 0.0 0.00 0.00 0.00 25 1010.6
20240524082806 66 159 0.0 0.0 0.00 0.00 0.00 24 1010.5
20240524082304 67 162 0.0 0.0 0.00 0.00 0.00 24 1010.7
20240524081800 67 163 0.0 0.0 0.00 0.00 0.00 24 1010.6
20240524081256 67 142 1.0 1.0 0.00 0.00 0.00 23 1010.6
20240524080754 66 162 0.0 0.0 0.00 0.00 0.00 24 1010.6
20240524080253 66 165 0.0 0.0 0.00 0.00 0.00 25 1010.6
20240524075749 67 159 0.0 2.0 0.00 0.00 0.00 26 1010.9
20240524075247 67 161 0.0 0.0 0.00 0.00 0.00 28 1010.5
20240524074745 67 147 0.0 1.0 0.00 0.00 0.00 29 1010.7
20240524074244 67 148 0.0 0.0 0.00 0.00 0.00 27 1011.0
20240524073743 66 164 0.0 0.0 0.00 0.00 0.00 28 1010.4
20240524073241 67 165 0.0 0.0 0.00 0.00 0.00 28 1010.7
20240524072741 68 164 0.0 0.0 0.00 0.00 0.00 27 1010.7
20240524072240 69 163 0.0 0.0 0.00 0.00 0.00 26 1010.4
20240524071740 69 163 0.0 0.0 0.00 0.00 0.00 25 1010.7
20240524071238 70 152 0.0 0.0 0.00 0.00 0.00 25 1010.6
20240524070737 70 164 0.0 0.0 0.00 0.00 0.00 24 1010.7
20240524070235 71 166 0.0 0.0 0.00 0.00 0.00 23 1010.4
20240524065733 71 166 0.0 0.0 0.00 0.00 0.00 23 1010.5
20240524065232 70 167 0.0 0.0 0.00 0.00 0.00 23 1010.4
20240524064730 70 165 0.0 0.0 0.00 0.00 0.00 24 1010.6
20240524064229 70 169 0.0 0.0 0.00 0.00 0.00 24 1010.7
20240524063729 70 170 0.0 0.0 0.00 0.00 0.00 24 1010.6
20240524063228 69 168 0.0 0.0 0.00 0.00 0.00 25 1010.6
20240524062727 70 166 0.0 0.0 0.00 0.00 0.00 25 1010.5
20240524062224 71 164 0.0 0.0 0.00 0.00 0.00 24 1010.5
20240524061720 72 164 0.0 0.0 0.00 0.00 0.00 23 1010.3
20240524061220 73 166 0.0 0.0 0.00 0.00 0.00 23 1010.4
20240524060719 73 164 0.0 0.0 0.00 0.00 0.00 22 1010.5
20240524060217 73 164 0.0 0.0 0.00 0.00 0.00 21 1010.5
20240524055714 73 164 0.0 0.0 0.00 0.00 0.00 21 1010.4
20240524055213 74 167 0.0 0.0 0.00 0.00 0.00 21 1010.5
20240524054713 74 166 0.0 0.0 0.00 0.00 0.00 21 1010.4
20240524054211 75 166 0.0 0.0 0.00 0.00 0.00 20 1010.3
20240524053711 75 166 0.0 0.0 0.00 0.00 0.00 19 1010.3
20240524053211 75 166 0.0 0.0 0.00 0.00 0.00 20 1010.4
20240524052709 75 166 0.0 0.0 0.00 0.00 0.00 20 1010.3
20240524052208 76 165 0.0 0.0 0.00 0.00 0.00 19 1010.5
20240524051708 76 165 0.0 0.0 0.00 0.00 0.00 19 1010.4
20240524051208 76 169 0.0 0.0 0.00 0.00 0.00 19 1010.4
20240524050706 77 177 0.0 1.0 0.00 0.00 0.00 19 1010.4
20240524050206 77 194 2.0 2.0 0.00 0.00 0.00 18 1010.4
20240524045705 78 168 0.0 0.0 0.00 0.00 0.00 18 1010.3
20240524045204 78 174 3.0 5.0 0.00 0.00 0.00 18 1010.2
20240524044701 77 124 2.0 2.0 0.00 0.00 0.00 18 1010.3
20240524044200 77 160 2.0 3.0 0.00 0.00 0.00 17 1010.1
20240524043658 78 171 0.0 1.0 0.00 0.00 0.00 17 1010.0
20240524043157 78 166 0.0 0.0 0.00 0.00 0.00 17 1010.0
20240524042656 79 180 1.0 1.0 0.00 0.00 0.00 16 1009.9
20240524042155 78 172 2.0 3.0 0.00 0.00 0.00 17 1009.9
20240524041654 78 169 0.0 1.0 0.00 0.00 0.00 16 1009.8
20240524041153 79 169 0.0 1.0 0.00 0.00 0.00 16 1009.8
20240524040650 79 189 1.0 1.0 0.00 0.00 0.00 15 1009.8
20240524040148 79 147 0.0 1.0 0.00 0.00 0.00 15 1009.7
20240524035648 79 159 1.0 2.0 0.00 0.00 0.00 14 1009.5
20240524035147 79 164 0.0 0.0 0.00 0.00 0.00 14 1009.6
20240524034645 79 208 0.0 2.0 0.00 0.00 0.00 13 1009.5
20240524034143 79 165 0.0 0.0 0.00 0.00 0.00 13 1009.5
20240524033642 79 163 0.0 0.0 0.00 0.00 0.00 13 1009.3
20240524033141 80 165 0.0 0.0 0.00 0.00 0.00 13 1009.2
20240524032641 81 164 0.0 0.0 0.00 0.00 0.00 12 1008.9
20240524032140 82 167 0.0 0.0 0.00 0.00 0.00 11 1009.2
20240524031640 82 170 0.0 0.0 0.00 0.00 0.00 11 1009.1
20240524031140 83 184 0.0 1.0 0.00 0.00 0.00 10 1009.0
20240524030638 84 167 0.0 0.0 0.00 0.00 0.00 10 1008.7
20240524030137 85 197 2.0 2.0 0.00 0.00 0.00 10 1008.6
20240524025636 85 174 3.0 3.0 0.00 0.00 0.00 10 1008.8
20240524025135 86 197 3.0 3.0 0.00 0.00 0.00 10 1008.7
20240524024633 86 175 3.0 5.0 0.00 0.00 0.00 10 1008.7
20240524024132 86 167 1.0 2.0 0.00 0.00 0.00 10 1008.6
20240524023631 86 213 3.0 5.0 0.00 0.00 0.00 10 1008.3
20240524023129 86 191 1.0 2.0 0.00 0.00 0.00 10 1008.2
20240524022627 86 170 1.0 2.0 0.00 0.00 0.00 10 1008.4
20240524022124 86 165 1.0 2.0 0.00 0.00 0.00 10 1008.3
20240524021623 87 178 1.0 1.0 0.00 0.00 0.00 10 1008.6
20240524021122 88 203 0.0 1.0 0.00 0.00 0.00 10 1008.2
20240524020621 88 292 4.0 6.0 0.00 0.00 0.00 10 1008.2
20240524020120 88 179 1.0 2.0 0.00 0.00 0.00 10 1008.1
20240524015619 88 207 3.0 5.0 0.00 0.00 0.00 10 1007.9
20240524015120 89 169 2.0 3.0 0.00 0.00 0.00 10 1007.8
20240524014618 89 183 2.0 5.0 0.00 0.00 0.00 10 1008.1
20240524014116 89 337 4.0 7.0 0.00 0.00 0.00 10 1007.7
20240524013616 89 194 4.0 6.0 0.00 0.00 0.00 10 1007.6
20240524013115 90 197 3.0 6.0 0.00 0.00 0.00 10 1007.9
20240524012614 90 204 6.0 7.0 0.00 0.00 0.00 10 1007.4
20240524012115 90 217 3.0 3.0 0.00 0.00 0.00 10 1007.5
20240524011613 90 296 3.0 6.0 0.00 0.00 0.00 10 1007.6
20240524011112 91 228 8.0 10.0 0.00 0.00 0.00 10 1007.5
20240524010612 90 195 2.0 3.0 0.00 0.00 0.00 10 1007.5
20240524010112 91 190 5.0 7.0 0.00 0.00 0.00 10 1007.7
20240524005610 91 209 2.0 3.0 0.00 0.00 0.00 10 1007.5
20240524005109 92 165 1.0 1.0 0.00 0.00 0.00 10 1007.6
20240524004608 91 164 2.0 3.0 0.00 0.00 0.00 10 1007.4
20240524004107 91 185 2.0 3.0 0.00 0.00 0.00 10 1007.4
20240524003606 92 168 3.0 3.0 0.00 0.00 0.00 10 1007.4
20240524003106 93 173 3.0 3.0 0.00 0.00 0.00 10 1007.5
20240524002604 92 189 1.0 2.0 0.00 0.00 0.00 10 1007.3
20240524002103 92 230 4.0 7.0 0.00 0.00 0.00 10 1007.4
20240524001601 93 204 8.0 9.0 0.00 0.00 0.00 10 1007.2
20240524001059 93 224 4.0 6.0 0.00 0.00 0.00 10 1007.4
20240524000559 93 213 5.0 7.0 0.00 0.00 0.00 10 1007.4
20240524000057 93 128 3.0 5.0 0.00 0.00 0.00 10 1007.4
20240523235556 93 171 2.0 3.0 0.00 0.00 0.00 10 1007.6
20240523235056 93 252 3.0 6.0 0.00 0.00 0.00 10 1007.1
20240523234555 93 240 3.0 5.0 0.00 0.00 0.00 10 1007.5
20240523234053 93 183 4.0 7.0 0.00 0.00 0.00 10 1007.5
20240523233552 93 275 3.0 5.0 0.00 0.00 0.00 10 1007.6
20240523233050 93 222 7.0 10.0 0.00 0.00 0.00 10 1007.6
20240523232549 93 221 6.0 8.0 0.00 0.00 0.00 10 1007.8
20240523232048 93 236 8.0 10.0 0.00 0.00 0.00 10 1007.5
20240523231547 93 209 4.0 6.0 0.00 0.00 0.00 10 1007.5
20240523231045 93 215 5.0 7.0 0.00 0.00 0.00 10 1007.6
20240523230544 93 273 5.0 6.0 0.00 0.00 0.00 10 1007.7
20240523230042 94 195 2.0 3.0 0.00 0.00 0.00 10 1007.5
20240523225542 94 276 4.0 8.0 0.00 0.00 0.00 10 1007.5
20240523225040 94 179 7.0 9.0 0.00 0.00 0.00 10 1007.6
20240523224538 94 200 4.0 5.0 0.00 0.00 0.00 10 1007.6
20240523224037 93 200 6.0 13.0 0.00 0.00 0.00 10 1007.4
20240523223536 93 181 1.0 1.0 0.00 0.00 0.00 10 1007.9
20240523223035 93 174 3.0 5.0 0.00 0.00 0.00 10 1007.9
20240523222533 93 207 3.0 3.0 0.00 0.00 0.00 10 1007.8
20240523222032 93 162 0.0 0.0 0.00 0.00 0.00 10 1007.7
20240523221532 93 197 3.0 6.0 0.00 0.00 0.00 10 1007.9
20240523221031 93 241 6.0 8.0 0.00 0.00 0.00 10 1007.9
20240523220530 93 102 3.0 5.0 0.00 0.00 0.00 10 1008.1
20240523220028 94 219 6.0 9.0 0.00 0.00 0.00 10 1007.9
20240523215527 93 161 3.0 3.0 0.00 0.00 0.00 10 1008.4
20240523215026 93 259 5.0 7.0 0.00 0.00 0.00 10 1008.2
20240523214526 91 179 3.0 5.0 0.00 0.00 0.00 10 1008.2
20240523214026 93 161 3.0 5.0 0.00 0.00 0.00 10 1008.4
20240523213524 93 197 3.0 3.0 0.00 0.00 0.00 10 1008.6
20240523213023 93 201 8.0 9.0 0.00 0.00 0.00 10 1008.3
20240523212522 92 174 0.0 1.0 0.00 0.00 0.00 10 1008.8
20240523212020 94 191 1.0 3.0 0.00 0.00 0.00 10 1008.7
20240523211517 93 179 2.0 3.0 0.00 0.00 0.00 10 1008.6
20240523211017 92 162 0.0 0.0 0.00 0.00 0.00 10 1008.8
20240523210515 93 176 3.0 3.0 0.00 0.00 0.00 10 1008.8
20240523210014 93 152 0.0 1.0 0.00 0.00 0.00 10 1008.8
20240523205513 92 169 1.0 1.0 0.00 0.00 0.00 10 1008.9
20240523205012 92 155 0.0 0.0 0.00 0.00 0.00 10 1009.1
20240523204512 91 167 1.0 2.0 0.00 0.00 0.00 10 1009.3
20240523204011 90 168 0.0 1.0 0.00 0.00 0.00 10 1009.2
20240523203509 91 182 6.0 8.0 0.00 0.00 0.00 10 1009.2
20240523203008 90 165 0.0 0.0 0.00 0.00 0.00 10 1009.1
20240523202506 90 149 0.0 1.0 0.00 0.00 0.00 10 1009.3
20240523202004 90 173 3.0 6.0 0.00 0.00 0.00 10 1009.3
20240523201503 89 168 1.0 2.0 0.00 0.00 0.00 10 1009.6
20240523201002 90 195 2.0 3.0 0.00 0.00 0.00 10 1009.7
20240523200500 90 151 2.0 2.0 0.00 0.00 0.00 10 1009.6
20240523195959 88 157 0.0 0.0 0.00 0.00 0.00 10 1009.5
20240523195458 88 178 2.0 3.0 0.00 0.00 0.00 10 1009.8
20240523194957 88 167 1.0 2.0 0.00 0.00 0.00 10 1010.0
20240523194456 89 181 3.0 5.0 0.00 0.00 0.00 10 1010.0
20240523193953 89 163 0.0 0.0 0.00 0.00 0.00 10 1010.0
20240523193451 88 164 0.0 0.0 0.00 0.00 0.00 11 1010.1
20240523192947 88 191 2.0 2.0 0.00 0.00 0.00 10 1010.0
20240523192446 89 85 2.0 2.0 0.00 0.00 0.00 11 1010.1
20240523191945 88 191 1.0 3.0 0.00 0.00 0.00 11 1010.4
20240523191444 88 165 0.0 1.0 0.00 0.00 0.00 12 1010.3
20240523190944 89 257 4.0 7.0 0.00 0.00 0.00 11 1010.3
20240523190442 88 194 1.0 1.0 0.00 0.00 0.00 12 1010.3
20240523185942 87 152 1.0 2.0 0.00 0.00 0.00 11 1010.3
20240523185441 86 128 2.0 3.0 0.00 0.00 0.00 11 1010.7
20240523184940 86 150 0.0 1.0 0.00 0.00 0.00 12 1010.4
20240523184439 85 120 1.0 1.0 0.00 0.00 0.00 11 1010.6
20240523183937 84 143 0.0 1.0 0.00 0.00 0.00 11 1010.5
20240523183436 86 169 1.0 3.0 0.00 0.00 0.00 11 1010.5
20240523182934 85 172 0.0 0.0 0.00 0.00 0.00 11 1010.7
20240523182432 85 120 2.0 2.0 0.00 0.00 0.00 11 1010.7
20240523181932 86 164 0.0 0.0 0.00 0.00 0.00 11 1011.0
20240523181431 85 147 2.0 3.0 0.00 0.00 0.00 11 1011.0
20240523180929 85 167 0.0 1.0 0.00 0.00 0.00 10 1011.0
20240523180427 84 194 1.0 3.0 0.00 0.00 0.00 11 1011.1
20240523175927 86 138 1.0 2.0 0.00 0.00 0.00 10 1011.2
20240523175426 85 150 0.0 0.0 0.00 0.00 0.00 12 1011.2
20240523174925 83 199 1.0 2.0 0.00 0.00 0.00 11 1011.0
20240523174423 83 203 3.0 3.0 0.00 0.00 0.00 11 1011.1
20240523173922 83 164 1.0 2.0 0.00 0.00 0.00 10 1011.3
20240523173422 85 135 2.0 3.0 0.00 0.00 0.00 11 1011.4
20240523172921 83 162 0.0 1.0 0.00 0.00 0.00 11 1011.5
20240523172420 84 147 2.0 2.0 0.00 0.00 0.00 12 1011.5
20240523171919 84 95 2.0 2.0 0.00 0.00 0.00 12 1011.5
20240523171418 84 168 0.0 0.0 0.00 0.00 0.00 12 1011.5
20240523170918 82 169 0.0 1.0 0.00 0.00 0.00 11 1011.4
20240523170416 83 172 0.0 0.0 0.00 0.00 0.00 10 1011.6
20240523165916 83 165 0.0 1.0 0.00 0.00 0.00 10 1011.5
20240523165415 82 170 0.0 0.0 0.00 0.00 0.00 11 1011.3
20240523164914 82 166 0.0 0.0 0.00 0.00 0.00 11 1011.8
20240523164413 82 187 2.0 3.0 0.00 0.00 0.00 10 1011.6
20240523163912 83 167 0.0 0.0 0.00 0.00 0.00 11 1011.6
20240523163411 82 166 0.0 0.0 0.00 0.00 0.00 11 1011.6
20240523162910 81 163 0.0 0.0 0.00 0.00 0.00 12 1011.7
20240523162409 82 168 0.0 0.0 0.00 0.00 0.00 11 1011.7
20240523161907 83 164 0.0 0.0 0.00 0.00 0.00 11 1011.7
20240523161406 83 160 0.0 0.0 0.00 0.00 0.00 11 1011.6
20240523160906 82 163 0.0 0.0 0.00 0.00 0.00 12 1011.7
20240523160404 82 158 1.0 1.0 0.00 0.00 0.00 11 1011.5
20240523155902 80 152 0.0 0.0 0.00 0.00 0.00 12 1011.6
20240523155401 80 165 0.0 0.0 0.00 0.00 0.00 11 1011.7
20240523154900 80 162 0.0 0.0 0.00 0.00 0.00 11 1011.6
20240523154359 80 163 0.0 0.0 0.00 0.00 0.00 12 1011.6
20240523153858 80 164 0.0 0.0 0.00 0.00 0.00 14 1011.8
20240523153358 79 157 0.0 0.0 0.00 0.00 0.00 13 1011.7
20240523152858 78 143 0.0 0.0 0.00 0.00 0.00 13 1011.7
20240523152357 78 159 0.0 0.0 0.00 0.00 0.00 13 1011.6
20240523151856 77 161 0.0 0.0 0.00 0.00 0.00 14 1011.8
20240523151357 76 164 0.0 0.0 0.00 0.00 0.00 13 1011.7
20240523150856 76 157 0.0 0.0 0.00 0.00 0.00 15 1011.6
20240523150355 75 155 0.0 0.0 0.00 0.00 0.00 14 1011.8
20240523145854 75 161 0.0 0.0 0.00 0.00 0.00 16 1011.8
20240523145352 74 162 0.0 0.0 0.00 0.00 0.00 18 1011.6
20240523144851 74 160 1.0 1.0 0.00 0.00 0.00 18 1011.6
20240523144349 73 162 0.0 0.0 0.00 0.00 0.00 19 1011.4
20240523143849 72 164 1.0 1.0 0.00 0.00 0.00 19 1011.4
20240523143349 71 162 0.0 0.0 0.00 0.00 0.00 20 1011.6
20240523142849 70 159 0.0 1.0 0.00 0.00 0.00 20 1011.6
20240523142349 69 163 0.0 0.0 0.00 0.00 0.00 21 1011.5
20240523141848 69 163 0.0 0.0 0.00 0.00 0.00 22 1011.2
20240523141347 69 162 0.0 0.0 0.00 0.00 0.00 22 1011.5
20240523140846 68 163 0.0 0.0 0.00 0.00 0.00 22 1011.6
20240523140344 68 163 0.0 0.0 0.00 0.00 0.00 21 1011.3
20240523135845 66 162 0.0 0.0 0.00 0.00 0.00 21 1011.4
20240523135343 66 162 0.0 0.0 0.00 0.00 0.00 21 1011.3
20240523134842 64 153 0.0 1.0 0.00 0.00 0.00 22 1011.4
20240523134342 63 157 0.0 0.0 0.00 0.00 0.00 23 1011.3
20240523133840 62 162 0.0 0.0 0.00 0.00 0.00 24 1011.1
20240523133338 62 157 0.0 0.0 0.00 0.00 0.00 25 1011.3
20240523132838 61 163 0.0 0.0 0.00 0.00 0.00 25 1011.3
20240523132336 60 159 0.0 0.0 0.00 0.00 0.00 24 1011.1
20240523131836 59 150 0.0 1.0 0.00 0.00 0.00 25 1011.2
20240523131332 59 162 0.0 1.0 0.00 0.00 0.00 26 1011.0
20240523130832 57 164 0.0 1.0 0.00 0.00 0.00 27 1011.2
20240523130332 56 159 0.0 0.0 0.00 0.00 0.00 28 1011.1
20240523125831 56 153 2.0 3.0 0.00 0.00 0.00 27 1011.0
20240523125330 56 161 0.0 1.0 0.00 0.00 0.00 28 1011.0
20240523124829 56 144 0.0 0.0 0.00 0.00 0.00 27 1011.3
20240523124328 55 163 0.0 1.0 0.00 0.00 0.00 28 1011.1
20240523123826 55 161 0.0 0.0 0.00 0.00 0.00 29 1010.7
20240523123324 55 164 0.0 0.0 0.00 0.00 0.00 28 1011.1
20240523122823 55 163 0.0 0.0 0.00 0.00 0.00 27 1011.0
20240523122323 56 155 0.0 0.0 0.00 0.00 0.00 27 1010.7
20240523121822 55 165 1.0 1.0 0.00 0.00 0.00 27 1010.9
20240523121321 55 160 0.0 0.0 0.00 0.00 0.00 27 1010.7
20240523120819 55 161 0.0 0.0 0.00 0.00 0.00 27 1010.9
20240523120319 55 162 0.0 0.0 0.00 0.00 0.00 28 1010.7
20240523115818 55 161 0.0 1.0 0.00 0.00 0.00 29 1010.7
20240523115316 55 137 0.0 0.0 0.00 0.00 0.00 30 1010.9
20240523114815 55 165 0.0 0.0 0.00 0.00 0.00 30 1010.7
20240523114314 55 145 0.0 1.0 0.00 0.00 0.00 31 1010.7
20240523113813 55 161 2.0 2.0 0.00 0.00 0.00 30 1010.9
20240523113313 56 164 0.0 1.0 0.00 0.00 0.00 31 1011.0
20240523112811 56 162 0.0 0.0 0.00 0.00 0.00 29 1010.5
20240523112311 57 163 0.0 0.0 0.00 0.00 0.00 29 1010.9
20240523111811 56 163 0.0 0.0 0.00 0.00 0.00 30 1010.6
20240523111310 57 162 0.0 0.0 0.00 0.00 0.00 29 1010.7
20240523110810 58 157 1.0 1.0 0.00 0.00 0.00 29 1010.9
20240523110307 57 156 0.0 1.0 0.00 0.00 0.00 26 1011.0
20240523105806 58 161 0.0 0.0 0.00 0.00 0.00 27 1010.9
20240523105304 57 162 0.0 0.0 0.00 0.00 0.00 27 1010.9
20240523104803 57 163 0.0 0.0 0.00 0.00 0.00 28 1010.9
20240523104302 57 160 0.0 0.0 0.00 0.00 0.00 30 1010.9
20240523103800 57 162 0.0 0.0 0.00 0.00 0.00 29 1010.7
20240523103300 58 165 0.0 0.0 0.00 0.00 0.00 28 1010.7
20240523102758 58 164 0.0 0.0 0.00 0.00 0.00 26 1010.7
20240523102257 59 162 0.0 0.0 0.00 0.00 0.00 26 1011.1
20240523101756 59 158 0.0 0.0 0.00 0.00 0.00 26 1010.6
20240523101234 59 162 0.0 0.0 0.00 0.00 0.00 26 1010.9
20240523100732 59 158 0.0 0.0 0.00 0.00 0.00 25 1010.7
20240523100231 59 158 0.0 0.0 0.00 0.00 0.00 25 1010.9
20240523095731 60 163 0.0 0.0 0.00 0.00 0.00 25 1010.9
20240523095232 60 162 0.0 0.0 0.00 0.00 0.00 25 1010.9
20240523094730 60 157 0.0 0.0 0.00 0.00 0.00 25 1010.7
20240523094229 61 161 0.0 0.0 0.00 0.00 0.00 24 1010.6
20240523093729 62 164 0.0 0.0 0.00 0.00 0.00 22 1010.7
20240523093228 62 157 0.0 0.0 0.00 0.00 0.00 21 1010.6
20240523092727 61 162 0.0 0.0 0.00 0.00 0.00 23 1010.7
20240523092227 60 157 0.0 0.0 0.00 0.00 0.00 23 1010.6